createdAt,value
2022-08-25T00:00:12.935Z,98.10
2022-08-25T00:02:40.439Z,97.80
2022-08-25T00:05:08.259Z,97.80
2022-08-25T00:07:37.377Z,97.80
2022-08-25T00:10:06.320Z,98.20
2022-08-25T00:12:33.934Z,98.50
2022-08-25T00:15:01.268Z,98.60
2022-08-25T00:17:28.979Z,98.60
2022-08-25T00:19:56.315Z,98.80
2022-08-25T00:22:23.710Z,99.00
2022-08-25T00:24:51.078Z,99.10
2022-08-25T00:27:18.474Z,98.90
2022-08-25T00:29:45.868Z,99.10
2022-08-25T00:32:13.354Z,99.30
2022-08-25T00:34:40.792Z,99.30
2022-08-25T00:37:11.578Z,99.30
2022-08-25T00:39:40.178Z,99.60
2022-08-25T00:42:15.866Z,99.90
2022-08-25T00:44:44.117Z,99.90
2022-08-25T00:47:11.533Z,99.90
2022-08-25T00:49:56.879Z,99.90
2022-08-25T00:52:46.080Z,99.90
2022-08-25T00:55:21.844Z,99.90
2022-08-25T00:57:56.998Z,99.90
2022-08-25T01:00:38.368Z,99.90
2022-08-25T01:03:06.883Z,99.90
2022-08-25T01:05:35.463Z,99.90
2022-08-25T01:08:06.536Z,99.90
2022-08-25T01:10:36.162Z,99.90
2022-08-25T01:13:16.825Z,99.90
2022-08-25T01:15:46.473Z,99.90
2022-08-25T01:18:14.403Z,99.90
2022-08-25T01:20:42.102Z,99.90
2022-08-25T01:23:09.568Z,99.90
2022-08-25T01:25:43.386Z,99.90
2022-08-25T01:28:10.971Z,99.90
2022-08-25T01:30:39.026Z,99.90
2022-08-25T01:33:08.505Z,99.90
2022-08-25T01:35:37.429Z,99.90
2022-08-25T01:38:06.705Z,99.90
2022-08-25T01:40:36.074Z,99.90
2022-08-25T01:43:06.316Z,99.90
2022-08-25T01:45:38.036Z,99.90
2022-08-25T01:48:08.094Z,99.90
2022-08-25T01:50:36.083Z,99.90
2022-08-25T01:53:07.725Z,99.90
2022-08-25T01:55:51.723Z,99.90
2022-08-25T01:58:28.248Z,99.90
2022-08-25T02:00:59.202Z,99.90
2022-08-25T02:03:27.272Z,99.90
2022-08-25T02:05:56.373Z,99.90
2022-08-25T02:08:24.935Z,99.90
2022-08-25T02:10:53.988Z,99.90
2022-08-25T02:13:26.869Z,99.90
2022-08-25T02:16:01.026Z,99.90
2022-08-25T02:18:29.050Z,99.90
2022-08-25T02:20:56.640Z,99.90
2022-08-25T02:23:24.067Z,99.90
2022-08-25T02:25:51.532Z,99.90
2022-08-25T02:28:18.997Z,99.90
2022-08-25T02:30:48.137Z,99.90
2022-08-25T02:33:15.655Z,99.90
2022-08-25T02:35:43.063Z,99.90
2022-08-25T02:38:10.662Z,99.90
2022-08-25T02:40:38.092Z,99.90
2022-08-25T02:43:05.945Z,99.90
2022-08-25T02:45:33.401Z,99.90
2022-08-25T02:48:00.797Z,99.90
2022-08-25T02:50:28.204Z,99.90
2022-08-25T02:52:55.616Z,99.90
2022-08-25T02:55:23.859Z,99.90
2022-08-25T02:57:51.629Z,99.90
2022-08-25T03:00:19.343Z,99.90
2022-08-25T03:02:47.414Z,99.90
2022-08-25T03:05:15.508Z,99.90
2022-08-25T03:07:43.248Z,99.90
2022-08-25T03:10:15.997Z,99.90
2022-08-25T03:12:43.451Z,99.90
2022-08-25T03:15:13.294Z,99.90
2022-08-25T03:17:40.946Z,99.90
2022-08-25T03:20:13.504Z,99.90
2022-08-25T03:22:41.124Z,99.90
2022-08-25T03:25:27.511Z,99.90
2022-08-25T03:27:55.263Z,99.90
2022-08-25T03:30:23.156Z,99.90
2022-08-25T03:32:50.871Z,99.90
2022-08-25T03:35:18.609Z,99.90
2022-08-25T03:37:46.069Z,99.90
2022-08-25T03:40:16.660Z,99.90
2022-08-25T03:42:45.394Z,99.90
2022-08-25T03:45:14.534Z,99.90
2022-08-25T03:47:42.500Z,99.90
2022-08-25T03:50:11.362Z,99.90
2022-08-25T03:52:42.429Z,99.90
2022-08-25T03:55:14.402Z,99.90
2022-08-25T03:57:42.234Z,99.90
2022-08-25T04:00:12.021Z,99.90
2022-08-25T04:02:40.984Z,99.90
2022-08-25T04:05:09.432Z,99.90
2022-08-25T04:07:37.120Z,99.90
2022-08-25T04:10:07.112Z,99.90
2022-08-25T04:12:34.834Z,99.90
2022-08-25T04:15:03.796Z,99.90
2022-08-25T04:17:31.258Z,99.90
2022-08-25T04:19:58.662Z,99.90
2022-08-25T04:22:26.118Z,99.90
2022-08-25T04:24:59.281Z,99.90
2022-08-25T04:27:26.908Z,99.90
2022-08-25T04:29:54.756Z,99.90
2022-08-25T04:32:22.657Z,99.90
2022-08-25T04:34:50.372Z,99.90
2022-08-25T04:37:17.770Z,99.90
2022-08-25T04:39:45.290Z,99.90
2022-08-25T04:42:12.730Z,99.90
2022-08-25T04:44:40.155Z,99.90
2022-08-25T04:47:07.597Z,99.90
2022-08-25T04:49:37.131Z,99.90
2022-08-25T04:52:04.779Z,99.90
2022-08-25T04:54:37.244Z,99.90
2022-08-25T04:57:05.262Z,99.90
2022-08-25T04:59:32.730Z,99.90
2022-08-25T05:02:05.328Z,99.90
2022-08-25T05:04:35.753Z,99.90
2022-08-25T05:07:04.485Z,99.90
2022-08-25T05:09:32.907Z,99.90
2022-08-25T05:12:04.610Z,99.90
2022-08-25T05:14:32.812Z,99.90
2022-08-25T05:17:01.366Z,99.90
2022-08-25T05:19:28.831Z,99.90
2022-08-25T05:21:57.827Z,99.90
2022-08-25T05:24:26.226Z,99.90
2022-08-25T05:26:53.743Z,99.90
2022-08-25T05:29:21.505Z,99.90
2022-08-25T05:31:50.821Z,99.90
2022-08-25T05:34:19.530Z,99.90
2022-08-25T05:36:47.824Z,99.90
2022-08-25T05:39:15.592Z,99.90
2022-08-25T05:41:43.056Z,99.90
2022-08-25T05:44:10.654Z,99.90
2022-08-25T05:46:38.432Z,99.90
2022-08-25T05:49:06.654Z,99.90
2022-08-25T05:51:34.210Z,99.90
2022-08-25T05:54:01.686Z,99.90
2022-08-25T05:56:29.243Z,99.90
2022-08-25T05:58:56.640Z,99.90
2022-08-25T06:01:45.802Z,99.90
2022-08-25T06:04:15.418Z,99.90
2022-08-25T06:06:42.897Z,99.90
2022-08-25T06:09:10.520Z,99.90
2022-08-25T06:11:40.079Z,99.90
2022-08-25T06:14:09.331Z,99.90
2022-08-25T06:16:38.575Z,99.90
2022-08-25T06:19:07.987Z,99.90
2022-08-25T06:21:35.634Z,99.90
2022-08-25T06:24:03.294Z,99.90
2022-08-25T06:26:30.760Z,99.90
2022-08-25T06:28:58.236Z,99.90
2022-08-25T06:31:25.795Z,99.90
2022-08-25T06:33:53.212Z,99.90
2022-08-25T06:36:21.053Z,99.90
2022-08-25T06:38:48.511Z,99.90
2022-08-25T06:41:16.701Z,99.90
2022-08-25T06:43:49.003Z,99.90
2022-08-25T06:46:35.563Z,99.90
2022-08-25T06:49:05.584Z,99.90
2022-08-25T06:51:35.685Z,99.90
2022-08-25T06:54:04.954Z,99.90
2022-08-25T06:56:34.065Z,99.90
2022-08-25T06:59:03.379Z,99.90
2022-08-25T07:01:32.132Z,99.90
2022-08-25T07:04:02.839Z,99.90
2022-08-25T07:06:32.349Z,99.90
2022-08-25T07:09:00.143Z,99.90
2022-08-25T07:11:28.111Z,99.90
2022-08-25T07:13:55.650Z,99.90
2022-08-25T07:16:27.988Z,99.90
2022-08-25T07:18:59.099Z,99.90
2022-08-25T07:21:33.141Z,99.90
2022-08-25T07:24:03.442Z,99.90
2022-08-25T07:26:37.809Z,99.90
2022-08-25T07:29:11.500Z,99.90
2022-08-25T07:31:39.315Z,99.90
2022-08-25T07:34:26.480Z,99.90
2022-08-25T07:36:55.140Z,99.90
2022-08-25T07:39:23.286Z,99.90
2022-08-25T07:41:51.879Z,99.90
2022-08-25T07:44:21.853Z,99.90
2022-08-25T07:46:50.653Z,99.90
2022-08-25T07:52:07.874Z,99.90
2022-08-25T07:54:38.238Z,99.90
2022-08-25T07:57:10.092Z,99.10
2022-08-25T07:59:42.340Z,99.70
2022-08-25T08:02:17.812Z,99.70
2022-08-25T08:04:49.271Z,99.70
2022-08-25T08:07:23.445Z,99.50
2022-08-25T08:10:05.367Z,99.80
2022-08-25T08:12:39.878Z,99.60
2022-08-25T08:15:10.268Z,99.30
2022-08-25T08:17:39.815Z,99.40
2022-08-25T08:20:09.692Z,99.40
2022-08-25T08:22:40.939Z,99.20
2022-08-25T08:25:11.106Z,99.50
2022-08-25T08:27:42.913Z,99.40
2022-08-25T08:30:11.497Z,99.40
2022-08-25T08:33:08.206Z,99.60
2022-08-25T08:35:26.472Z,99.10
2022-08-25T08:37:54.117Z,99.30
2022-08-25T08:40:21.647Z,99.70
2022-08-25T08:43:07.189Z,99.00
2022-08-25T08:45:45.587Z,99.40
2022-08-25T08:48:33.807Z,97.90
2022-08-25T08:51:15.703Z,97.80
2022-08-25T08:53:48.238Z,98.20
2022-08-25T08:56:31.695Z,98.30
2022-08-25T08:59:06.047Z,98.30
2022-08-25T09:02:13.673Z,98.30
2022-08-25T09:04:48.587Z,98.60
2022-08-25T09:07:23.271Z,97.60
2022-08-25T09:09:52.462Z,97.60
2022-08-25T09:12:47.493Z,97.80
2022-08-25T09:15:55.574Z,98.40
2022-08-25T09:18:50.911Z,98.10
2022-08-25T09:21:25.793Z,97.10
2022-08-25T09:24:25.097Z,96.80
2022-08-25T09:26:52.626Z,97.20
2022-08-25T09:29:23.562Z,96.00
2022-08-25T09:31:57.994Z,95.60
2022-08-25T09:34:32.098Z,96.40
2022-08-25T09:37:00.615Z,97.10
2022-08-25T09:39:28.338Z,96.70
2022-08-25T09:42:00.101Z,96.30
2022-08-25T09:44:43.604Z,94.10
2022-08-25T09:47:13.993Z,94.90
2022-08-25T09:49:44.568Z,94.50
2022-08-25T09:52:37.465Z,94.40
2022-08-25T09:55:07.853Z,93.00
2022-08-25T09:57:42.867Z,93.00
2022-08-25T10:00:28.823Z,93.90
2022-08-25T10:03:22.535Z,92.90
2022-08-25T10:05:57.984Z,93.20
2022-08-25T10:08:51.622Z,92.80
2022-08-25T10:11:43.530Z,93.10
2022-08-25T10:14:35.035Z,92.20
2022-08-25T10:17:30.159Z,92.70
2022-08-25T10:20:19.885Z,92.40
2022-08-25T10:22:50.415Z,91.80
2022-08-25T10:25:28.122Z,92.50
2022-08-25T10:28:38.654Z,92.20
2022-08-25T10:31:19.804Z,91.60
2022-08-25T10:34:12.189Z,91.30
2022-08-25T10:37:00.032Z,92.10
2022-08-25T10:39:36.210Z,91.50
2022-08-25T10:42:25.896Z,91.20
2022-08-25T10:45:31.081Z,90.70
2022-08-25T10:48:26.270Z,91.20
2022-08-25T10:51:14.616Z,90.30
2022-08-25T10:54:27.468Z,90.00
2022-08-25T10:57:27.673Z,90.00
2022-08-25T11:00:11.925Z,88.30
2022-08-25T11:02:58.028Z,90.00
2022-08-25T11:05:40.589Z,89.00
2022-08-25T11:08:25.341Z,87.90
2022-08-25T11:11:09.532Z,86.00
2022-08-25T11:13:42.060Z,86.20
2022-08-25T11:16:21.332Z,89.10
2022-08-25T11:19:05.426Z,85.40
2022-08-25T11:21:46.850Z,85.70
2022-08-25T11:24:36.205Z,85.70
2022-08-25T11:27:08.422Z,84.00
2022-08-25T11:29:43.928Z,85.30
2022-08-25T11:32:11.808Z,88.00
2022-08-25T11:34:42.981Z,87.20
2022-08-25T11:37:27.890Z,86.90
2022-08-25T11:39:58.650Z,88.20
2022-08-25T11:42:57.671Z,85.80
2022-08-25T11:45:54.119Z,86.30
2022-08-25T11:49:04.485Z,86.00
2022-08-25T11:51:47.610Z,83.70
2022-08-25T11:54:28.306Z,83.60
2022-08-25T11:57:17.932Z,84.60
2022-08-25T11:59:52.024Z,85.20
2022-08-25T12:02:41.364Z,84.70
2022-08-25T12:05:22.021Z,83.60
2022-08-25T12:08:25.739Z,83.00
2022-08-25T12:11:09.974Z,83.30
2022-08-25T12:13:39.708Z,82.80
2022-08-25T12:16:27.661Z,83.60
2022-08-25T12:19:29.093Z,83.90
2022-08-25T12:22:01.068Z,83.80
2022-08-25T12:24:48.039Z,82.40
2022-08-25T12:27:33.573Z,82.20
2022-08-25T12:30:47.171Z,83.70
2022-08-25T12:33:37.086Z,82.70
2022-08-25T12:36:11.360Z,81.90
2022-08-25T12:38:52.018Z,82.50
2022-08-25T12:41:24.482Z,81.30
2022-08-25T12:43:54.585Z,83.10
2022-08-25T12:46:26.346Z,81.60
2022-08-25T12:49:00.292Z,82.00
2022-08-25T12:51:57.341Z,82.50
2022-08-25T12:54:47.731Z,81.90
2022-08-25T12:57:42.698Z,82.80
2022-08-25T13:00:23.305Z,81.50
2022-08-25T13:03:17.337Z,81.00
2022-08-25T13:05:59.020Z,81.90
2022-08-25T13:08:56.171Z,81.60
2022-08-25T13:11:35.252Z,81.60
2022-08-25T13:14:26.869Z,81.40
2022-08-25T13:16:59.992Z,82.10
2022-08-25T13:19:27.887Z,80.20
2022-08-25T13:22:16.136Z,79.70
2022-08-25T13:24:47.511Z,82.40
2022-08-25T13:27:28.161Z,81.70
2022-08-25T13:29:59.906Z,81.20
2022-08-25T13:32:35.425Z,82.40
2022-08-25T13:35:21.168Z,83.80
2022-08-25T13:37:50.181Z,80.90
2022-08-25T13:40:26.463Z,80.40
2022-08-25T13:43:14.403Z,80.60
2022-08-25T13:45:45.836Z,78.70
2022-08-25T13:48:22.703Z,81.00
2022-08-25T13:50:51.981Z,79.40
2022-08-25T13:53:26.056Z,81.80
2022-08-25T13:55:59.790Z,80.30
2022-08-25T13:58:44.380Z,81.30
2022-08-25T14:01:47.246Z,81.60
2022-08-25T14:04:36.499Z,80.80
2022-08-25T14:07:33.755Z,82.50
2022-08-25T14:10:10.111Z,81.80
2022-08-25T14:12:42.114Z,81.50
2022-08-25T14:15:18.290Z,82.90
2022-08-25T14:18:08.605Z,81.00
2022-08-25T14:20:37.975Z,81.50
2022-08-25T14:23:16.265Z,79.60
2022-08-25T14:25:47.484Z,81.00
2022-08-25T14:28:19.323Z,80.50
2022-08-25T14:30:52.166Z,80.40
2022-08-25T14:33:24.181Z,81.90
2022-08-25T14:35:53.888Z,81.50
2022-08-25T14:38:22.950Z,82.50
2022-08-25T14:40:51.099Z,81.30
2022-08-25T14:43:23.670Z,80.90
2022-08-25T14:45:51.993Z,80.40
2022-08-25T14:48:28.271Z,80.00
2022-08-25T14:50:58.280Z,81.70
2022-08-25T14:53:26.548Z,80.60
2022-08-25T14:55:55.682Z,80.50
2022-08-25T14:58:33.815Z,79.40
2022-08-25T15:01:02.711Z,80.80
2022-08-25T15:03:34.245Z,80.10
2022-08-25T15:06:03.255Z,80.70
2022-08-25T15:08:50.943Z,81.80
2022-08-25T15:11:18.601Z,80.50
2022-08-25T15:13:49.380Z,80.00
2022-08-25T15:16:36.506Z,79.80
2022-08-25T15:19:11.746Z,79.50
2022-08-25T15:21:39.549Z,79.10
2022-08-25T15:24:09.670Z,80.90
2022-08-25T15:26:46.080Z,80.90
2022-08-25T15:29:13.906Z,80.60
2022-08-25T15:31:43.188Z,80.50
2022-08-25T15:34:11.804Z,80.10
2022-08-25T15:36:39.861Z,80.70
2022-08-25T15:39:09.259Z,81.00
2022-08-25T15:41:37.902Z,80.40
2022-08-25T15:44:07.930Z,80.60
2022-08-25T15:46:36.584Z,80.40
2022-08-25T15:49:05.710Z,79.70
2022-08-25T15:51:35.493Z,80.30
2022-08-25T15:54:03.618Z,79.60
2022-08-25T15:56:31.322Z,80.00
2022-08-25T15:58:58.795Z,79.20
2022-08-25T16:01:28.028Z,80.10
2022-08-25T16:03:58.303Z,80.20
2022-08-25T16:06:26.574Z,79.00
2022-08-25T16:08:54.411Z,79.70
2022-08-25T16:11:25.858Z,79.90
2022-08-25T16:13:54.480Z,80.50
2022-08-25T16:16:25.404Z,81.30
2022-08-25T16:18:53.476Z,81.40
2022-08-25T16:21:29.111Z,81.60
2022-08-25T16:24:04.385Z,82.60
2022-08-25T16:26:33.591Z,81.70
2022-08-25T16:29:01.081Z,82.20
2022-08-25T16:31:33.931Z,81.60
2022-08-25T16:34:01.752Z,79.70
2022-08-25T16:36:29.517Z,81.40
2022-08-25T16:38:58.509Z,81.80
2022-08-25T16:41:35.910Z,81.20
2022-08-25T16:44:07.785Z,81.80
2022-08-25T16:46:40.787Z,81.30
2022-08-25T16:49:10.473Z,82.20
2022-08-25T16:51:39.491Z,82.00
2022-08-25T16:54:27.549Z,82.30
2022-08-25T16:56:57.338Z,82.60
2022-08-25T16:59:25.550Z,82.40
2022-08-25T17:01:53.719Z,82.00
2022-08-25T17:04:21.694Z,82.40
2022-08-25T17:06:59.685Z,82.80
2022-08-25T17:09:27.086Z,81.70
2022-08-25T17:11:56.926Z,81.50
2022-08-25T17:14:25.051Z,81.80
2022-08-25T17:16:55.125Z,82.20
2022-08-25T17:19:25.024Z,82.30
2022-08-25T17:21:54.548Z,82.80
2022-08-25T17:24:29.525Z,83.40
2022-08-25T17:27:00.132Z,84.00
2022-08-25T17:29:29.054Z,85.50
2022-08-25T17:31:56.534Z,85.20
2022-08-25T17:34:24.276Z,85.20
2022-08-25T17:36:53.186Z,85.40
2022-08-25T17:39:22.332Z,85.70
2022-08-25T17:41:51.080Z,85.80
2022-08-25T17:44:19.723Z,86.80
2022-08-25T17:46:48.028Z,86.20
2022-08-25T17:49:17.453Z,87.00
2022-08-25T17:51:45.387Z,87.00
2022-08-25T17:54:13.278Z,87.60
2022-08-25T17:56:41.191Z,88.20
2022-08-25T17:59:09.233Z,88.70
2022-08-25T18:01:40.873Z,89.70
2022-08-25T18:04:17.011Z,89.70
2022-08-25T18:06:47.534Z,90.10
2022-08-25T18:09:16.345Z,90.00
2022-08-25T18:11:45.808Z,90.40
2022-08-25T18:14:14.424Z,90.90
2022-08-25T18:16:42.270Z,90.90
2022-08-25T18:19:10.929Z,90.30
2022-08-25T18:21:39.446Z,90.10
2022-08-25T18:24:07.973Z,90.20
2022-08-25T18:26:35.711Z,90.60
2022-08-25T18:29:03.583Z,90.00
2022-08-25T18:31:31.500Z,90.60
2022-08-25T18:33:59.936Z,90.40
2022-08-25T18:36:27.315Z,91.00
2022-08-25T18:39:14.280Z,90.70
2022-08-25T18:41:45.068Z,91.10
2022-08-25T18:44:12.970Z,91.50
2022-08-25T18:46:45.390Z,91.90
2022-08-25T18:49:15.572Z,91.80
2022-08-25T18:51:44.857Z,92.00
2022-08-25T18:54:22.825Z,91.50
2022-08-25T18:56:53.246Z,91.80
2022-08-25T18:59:23.560Z,92.20
2022-08-25T19:01:53.933Z,92.60
2022-08-25T19:04:28.403Z,92.60
2022-08-25T19:07:00.198Z,92.70
2022-08-25T19:09:27.886Z,92.90
2022-08-25T19:11:56.012Z,93.30
2022-08-25T19:14:23.616Z,93.20
2022-08-25T19:16:54.531Z,93.50
2022-08-25T19:19:23.834Z,93.10
2022-08-25T19:21:51.662Z,92.90
2022-08-25T19:24:19.453Z,93.80
2022-08-25T19:26:49.586Z,94.60
2022-08-25T19:29:20.049Z,94.60
2022-08-25T19:31:48.313Z,94.50
2022-08-25T19:34:21.835Z,94.30
2022-08-25T19:36:51.142Z,94.20
2022-08-25T19:39:18.934Z,94.10
2022-08-25T19:41:46.762Z,94.40
2022-08-25T19:44:16.452Z,94.00
2022-08-25T19:46:46.405Z,93.70
2022-08-25T19:49:20.641Z,93.60
2022-08-25T19:51:51.450Z,93.50
2022-08-25T19:54:27.233Z,94.10
2022-08-25T19:56:55.690Z,94.40
2022-08-25T19:59:40.680Z,93.80
2022-08-25T20:02:24.947Z,94.20
2022-08-25T20:04:55.052Z,94.90
2022-08-25T20:07:25.449Z,95.20
2022-08-25T20:09:54.289Z,95.40
2022-08-25T20:12:23.940Z,94.90
2022-08-25T20:14:52.359Z,95.40
2022-08-25T20:17:24.805Z,95.50
2022-08-25T20:19:55.925Z,95.70
2022-08-25T20:22:26.633Z,95.40
2022-08-25T20:25:13.079Z,95.80
2022-08-25T20:27:51.043Z,95.90
2022-08-25T20:30:22.878Z,96.30
2022-08-25T20:32:51.885Z,96.20
2022-08-25T20:35:20.384Z,96.10
2022-08-25T20:37:54.773Z,96.60
2022-08-25T20:40:25.408Z,96.70
2022-08-25T20:42:54.250Z,96.80
2022-08-25T20:45:22.788Z,96.90
2022-08-25T20:47:51.016Z,96.90
2022-08-25T20:50:19.700Z,97.10
2022-08-25T20:52:48.598Z,96.70
2022-08-25T20:55:17.606Z,96.50
2022-08-25T20:57:47.132Z,96.40
2022-08-25T21:00:16.566Z,96.40
2022-08-25T21:02:46.287Z,96.40
2022-08-25T21:05:13.986Z,96.50
2022-08-25T21:07:41.932Z,96.50
2022-08-25T21:10:14.460Z,96.50
2022-08-25T21:12:42.855Z,96.60
2022-08-25T21:15:11.573Z,96.30
2022-08-25T21:17:39.174Z,96.60
2022-08-25T21:20:08.611Z,96.60
2022-08-25T21:22:37.801Z,96.60
2022-08-25T21:25:05.729Z,96.50
2022-08-25T21:27:34.162Z,96.40
2022-08-25T21:30:01.527Z,96.50
2022-08-25T21:32:29.004Z,96.50
2022-08-25T21:34:57.058Z,96.30
2022-08-25T21:37:27.038Z,96.30
2022-08-25T21:39:54.751Z,96.20
2022-08-25T21:42:23.831Z,96.40
2022-08-25T21:44:52.600Z,96.30
2022-08-25T21:47:21.609Z,96.10
2022-08-25T21:49:50.799Z,96.10
2022-08-25T21:52:18.706Z,96.40
2022-08-25T21:54:46.762Z,96.30
2022-08-25T21:57:14.577Z,96.30
2022-08-25T21:59:43.501Z,96.20
2022-08-25T22:02:13.165Z,96.40
2022-08-25T22:04:42.778Z,96.20
2022-08-25T22:07:11.150Z,95.80
2022-08-25T22:09:40.055Z,96.00
2022-08-25T22:12:08.188Z,96.40
2022-08-25T22:14:36.844Z,96.60
2022-08-25T22:17:05.412Z,96.50
2022-08-25T22:19:36.548Z,96.60
2022-08-25T22:22:06.749Z,96.00
2022-08-25T22:24:34.595Z,95.90
2022-08-25T22:27:02.055Z,95.80
2022-08-25T22:29:30.622Z,96.50
2022-08-25T22:32:02.159Z,96.80
2022-08-25T22:34:34.349Z,97.10
2022-08-25T22:37:04.136Z,96.90
2022-08-25T22:39:34.403Z,97.30
2022-08-25T22:42:03.599Z,97.40
2022-08-25T22:44:31.255Z,97.10
2022-08-25T22:46:58.690Z,96.90
2022-08-25T22:49:28.843Z,97.30
2022-08-25T22:51:56.227Z,97.90
2022-08-25T22:54:25.313Z,97.80
2022-08-25T22:56:53.367Z,98.00
2022-08-25T22:59:22.086Z,98.00
2022-08-25T23:01:52.649Z,98.40
2022-08-25T23:04:22.437Z,98.60
2022-08-25T23:06:50.207Z,98.40
2022-08-25T23:09:17.732Z,98.50
2022-08-25T23:11:45.303Z,98.50
2022-08-25T23:14:13.458Z,98.30
2022-08-25T23:16:42.763Z,98.10
2022-08-25T23:19:13.705Z,98.20
2022-08-25T23:22:01.893Z,98.30
2022-08-25T23:24:30.787Z,98.00
2022-08-25T23:27:00.648Z,98.00
2022-08-25T23:29:29.232Z,98.10
2022-08-25T23:31:57.906Z,98.10
2022-08-25T23:34:26.197Z,98.40
2022-08-25T23:36:53.811Z,98.40
2022-08-25T23:39:22.168Z,98.20
2022-08-25T23:41:50.288Z,98.10
2022-08-25T23:44:19.520Z,98.50
2022-08-25T23:46:48.138Z,99.00
2022-08-25T23:49:18.397Z,98.40
2022-08-25T23:51:51.848Z,98.30
2022-08-25T23:54:21.183Z,98.00
2022-08-25T23:56:52.010Z,98.00
2022-08-25T23:59:24.760Z,98.20
